createdAt,value
2022-11-01T00:02:14.467Z,14.23
2022-11-01T00:04:42.483Z,14.18
2022-11-01T00:07:10.157Z,14.27
2022-11-01T00:09:37.874Z,14.10
2022-11-01T00:12:05.955Z,14.29
2022-11-01T00:14:33.559Z,14.06
2022-11-01T00:17:01.165Z,14.14
2022-11-01T00:19:29.042Z,14.22
2022-11-01T00:21:56.984Z,14.14
2022-11-01T00:24:25.233Z,14.13
2022-11-01T00:26:53.064Z,14.31
2022-11-01T00:29:20.564Z,14.17
2022-11-01T00:31:48.269Z,14.19
2022-11-01T00:34:16.977Z,14.10
2022-11-01T00:36:44.567Z,14.09
2022-11-01T00:39:15.684Z,13.98
2022-11-01T00:41:43.688Z,13.92
2022-11-01T00:44:11.269Z,14.07
2022-11-01T00:46:38.776Z,14.13
2022-11-01T00:49:06.599Z,14.27
2022-11-01T00:51:34.189Z,14.38
2022-11-01T00:54:01.761Z,14.22
2022-11-01T00:56:29.553Z,14.09
2022-11-01T00:58:57.107Z,14.30
2022-11-01T01:01:24.705Z,14.42
2022-11-01T01:03:52.815Z,14.26
2022-11-01T01:06:20.683Z,14.18
2022-11-01T01:08:48.411Z,14.22
2022-11-01T01:11:16.569Z,14.17
2022-11-01T01:13:44.154Z,14.13
2022-11-01T01:16:12.660Z,14.22
2022-11-01T01:18:41.210Z,14.17
2022-11-01T01:21:09.277Z,14.16
2022-11-01T01:23:37.043Z,13.99
2022-11-01T01:26:09.517Z,14.04
2022-11-01T01:28:41.856Z,14.39
2022-11-01T01:31:14.075Z,14.17
2022-11-01T01:33:41.703Z,14.30
2022-11-01T01:36:09.616Z,14.33
2022-11-01T01:38:37.553Z,14.58
2022-11-01T01:41:24.523Z,14.15
2022-11-01T01:43:52.523Z,14.18
2022-11-01T01:46:20.584Z,14.27
2022-11-01T01:48:52.259Z,14.23
2022-11-01T01:51:26.724Z,14.19
2022-11-01T01:53:56.186Z,14.21
2022-11-01T01:56:27.785Z,14.10
2022-11-01T01:59:02.473Z,14.27
2022-11-01T02:01:31.620Z,14.18
2022-11-01T02:04:02.611Z,14.24
2022-11-01T02:06:33.424Z,14.16
2022-11-01T02:09:03.360Z,14.22
2022-11-01T02:11:30.939Z,14.19
2022-11-01T02:13:58.917Z,14.28
2022-11-01T02:17:24.183Z,14.44
2022-11-01T02:20:32.316Z,14.33
2022-11-01T02:23:29.389Z,14.14
2022-11-01T02:25:59.674Z,14.22
2022-11-01T02:28:39.516Z,14.36
2022-11-01T02:31:33.045Z,14.38
2022-11-01T02:34:13.300Z,14.14
2022-11-01T02:36:46.920Z,14.16
2022-11-01T02:39:23.362Z,14.16
2022-11-01T02:42:09.962Z,14.18
2022-11-01T02:44:42.266Z,14.50
2022-11-01T02:47:12.139Z,14.46
2022-11-01T02:49:46.894Z,14.16
2022-11-01T02:52:19.505Z,14.13
2022-11-01T02:54:53.736Z,13.93
2022-11-01T02:57:28.945Z,14.16
2022-11-01T03:00:03.425Z,14.43
2022-11-01T03:02:42.841Z,14.22
2022-11-01T03:05:19.570Z,13.99
2022-11-01T03:07:51.636Z,14.05
2022-11-01T03:10:21.441Z,14.32
2022-11-01T03:13:04.030Z,14.25
2022-11-01T03:15:39.904Z,14.22
2022-11-01T03:18:18.941Z,14.23
2022-11-01T03:20:59.320Z,14.15
2022-11-01T03:23:36.250Z,14.15
2022-11-01T03:26:09.031Z,14.42
2022-11-01T03:28:41.547Z,14.68
2022-11-01T03:31:16.461Z,14.61
2022-11-01T03:33:49.081Z,14.40
2022-11-01T03:36:19.887Z,14.62
2022-11-01T03:39:12.170Z,14.55
2022-11-01T03:41:45.009Z,14.65
2022-11-01T03:44:13.557Z,14.82
2022-11-01T03:46:42.416Z,14.74
2022-11-01T03:49:10.071Z,14.40
2022-11-01T03:51:37.623Z,14.27
2022-11-01T03:54:10.948Z,14.39
2022-11-01T03:56:41.701Z,14.07
2022-11-01T03:59:11.073Z,14.39
2022-11-01T04:01:38.793Z,14.52
2022-11-01T04:04:06.963Z,14.39
2022-11-01T04:06:34.490Z,14.35
2022-11-01T04:09:02.113Z,14.21
2022-11-01T04:11:30.006Z,14.48
2022-11-01T04:14:17.499Z,14.47
2022-11-01T04:17:04.366Z,14.08
2022-11-01T04:19:51.013Z,14.04
2022-11-01T04:22:22.066Z,13.97
2022-11-01T04:24:52.014Z,14.06
2022-11-01T04:27:19.896Z,14.06
2022-11-01T04:29:47.713Z,13.98
2022-11-01T04:32:15.224Z,13.88
2022-11-01T04:34:43.145Z,14.05
2022-11-01T04:37:11.759Z,14.18
2022-11-01T04:39:39.501Z,14.05
2022-11-01T04:42:07.473Z,14.18
2022-11-01T04:44:35.040Z,14.37
2022-11-01T04:47:02.794Z,14.29
2022-11-01T04:49:33.575Z,14.42
2022-11-01T04:52:01.311Z,14.15
2022-11-01T04:54:33.370Z,14.02
2022-11-01T04:57:01.290Z,14.45
2022-11-01T04:59:28.928Z,14.53
2022-11-01T05:01:56.537Z,14.48
2022-11-01T05:04:24.460Z,14.50
2022-11-01T05:06:52.042Z,14.51
2022-11-01T05:09:19.589Z,14.53
2022-11-01T05:11:47.496Z,14.41
2022-11-01T05:14:15.021Z,14.31
2022-11-01T05:16:42.571Z,14.17
2022-11-01T05:19:10.394Z,14.23
2022-11-01T05:21:37.915Z,14.43
2022-11-01T05:24:05.689Z,14.09
2022-11-01T05:26:34.101Z,14.13
2022-11-01T05:29:08.851Z,13.72
2022-11-01T05:31:41.275Z,13.90
2022-11-01T05:34:08.859Z,14.05
2022-11-01T05:36:36.443Z,13.91
2022-11-01T05:39:04.369Z,14.21
2022-11-01T05:41:31.985Z,14.04
2022-11-01T05:43:59.543Z,14.04
2022-11-01T05:46:27.471Z,13.37
2022-11-01T05:48:54.982Z,13.24
2022-11-01T05:51:23.040Z,13.84
2022-11-01T05:53:51.437Z,13.77
2022-11-01T05:56:19.099Z,13.09
2022-11-01T05:58:47.450Z,13.71
2022-11-01T06:01:17.290Z,13.35
2022-11-01T06:03:50.067Z,13.25
2022-11-01T06:06:17.643Z,13.49
2022-11-01T06:08:45.549Z,13.35
2022-11-01T06:11:13.154Z,13.54
2022-11-01T06:13:40.675Z,13.71
2022-11-01T06:16:08.812Z,13.42
2022-11-01T06:18:36.447Z,13.15
2022-11-01T06:21:04.219Z,13.26
2022-11-01T06:23:32.147Z,13.07
2022-11-01T06:26:03.803Z,13.32
2022-11-01T06:28:32.098Z,13.45
2022-11-01T06:31:02.134Z,13.24
2022-11-01T06:33:31.382Z,13.26
2022-11-01T06:35:58.976Z,13.26
2022-11-01T06:38:26.917Z,13.11
2022-11-01T06:40:54.504Z,13.36
2022-11-01T06:43:22.482Z,13.44
2022-11-01T06:45:50.760Z,12.99
2022-11-01T06:48:18.418Z,12.56
2022-11-01T06:50:45.903Z,13.09
2022-11-01T06:53:13.763Z,13.26
2022-11-01T06:55:41.373Z,12.86
2022-11-01T06:58:09.381Z,13.18
2022-11-01T07:00:37.273Z,13.33
2022-11-01T07:03:07.820Z,13.29
2022-11-01T07:05:37.764Z,13.53
2022-11-01T07:08:12.856Z,13.19
2022-11-01T07:10:43.065Z,13.06
2022-11-01T07:13:13.649Z,12.44
2022-11-01T07:15:41.479Z,13.24
2022-11-01T07:18:09.014Z,13.12
2022-11-01T07:20:43.793Z,13.08
2022-11-01T07:23:16.090Z,13.29
2022-11-01T07:25:44.987Z,13.72
2022-11-01T07:28:12.687Z,13.42
2022-11-01T07:30:40.357Z,13.66
2022-11-01T07:33:08.348Z,13.33
2022-11-01T07:35:36.072Z,13.48
2022-11-01T07:38:06.617Z,13.38
2022-11-01T07:40:40.796Z,13.42
2022-11-01T07:43:08.708Z,12.66
2022-11-01T07:45:36.659Z,13.34
2022-11-01T07:48:10.197Z,13.35
2022-11-01T07:50:39.701Z,13.69
2022-11-01T07:53:10.316Z,13.17
2022-11-01T07:55:38.517Z,13.61
2022-11-01T07:58:06.929Z,13.69
2022-11-01T08:03:15.263Z,13.84
2022-11-01T08:05:43.760Z,13.78
2022-11-01T08:08:12.324Z,13.81
2022-11-01T08:10:40.581Z,13.76
2022-11-01T08:13:07.982Z,13.81
2022-11-01T08:15:35.941Z,13.50
2022-11-01T08:18:03.835Z,13.69
2022-11-01T08:20:31.874Z,13.35
2022-11-01T08:23:00.026Z,13.53
2022-11-01T08:25:27.654Z,13.49
2022-11-01T08:27:55.323Z,13.12
2022-11-01T08:30:23.834Z,13.33
2022-11-01T08:32:58.493Z,13.41
2022-11-01T08:35:26.420Z,13.47
2022-11-01T08:37:55.036Z,12.86
2022-11-01T08:40:23.063Z,13.06
2022-11-01T08:42:51.425Z,13.13
2022-11-01T08:45:19.223Z,12.76
2022-11-01T08:47:46.931Z,12.80
2022-11-01T08:50:17.012Z,13.02
2022-11-01T08:52:44.784Z,13.47
2022-11-01T08:55:13.312Z,12.96
2022-11-01T08:57:41.283Z,13.44
2022-11-01T09:00:11.867Z,13.23
2022-11-01T09:02:39.727Z,13.12
2022-11-01T09:05:08.688Z,12.91
2022-11-01T09:07:37.314Z,13.12
2022-11-01T09:10:06.302Z,13.02
2022-11-01T09:12:35.033Z,12.87
2022-11-01T09:15:03.619Z,13.53
2022-11-01T09:17:31.239Z,13.60
2022-11-01T09:19:59.125Z,13.45
2022-11-01T09:22:26.718Z,13.07
2022-11-01T09:24:56.952Z,13.68
2022-11-01T09:27:25.208Z,13.88
2022-11-01T09:29:52.900Z,14.03
2022-11-01T09:32:20.412Z,14.04
2022-11-01T09:34:49.223Z,14.19
2022-11-01T09:37:17.316Z,14.21
2022-11-01T09:39:45.037Z,14.42
2022-11-01T09:42:32.562Z,14.55
2022-11-01T09:45:18.013Z,14.08
2022-11-01T09:47:51.111Z,13.98
2022-11-01T09:50:33.760Z,14.34
2022-11-01T09:53:04.782Z,14.28
2022-11-01T09:55:46.242Z,13.94
2022-11-01T09:58:21.480Z,13.95
2022-11-01T10:01:15.574Z,14.10
2022-11-01T10:04:15.777Z,14.20
2022-11-01T10:06:49.987Z,14.08
2022-11-01T10:09:45.896Z,14.06
2022-11-01T10:12:35.369Z,14.36
2022-11-01T10:15:10.661Z,14.60
2022-11-01T10:17:53.277Z,14.69
2022-11-01T10:20:30.344Z,14.28
2022-11-01T10:22:59.480Z,14.64
2022-11-01T10:25:33.810Z,14.38
2022-11-01T10:28:22.811Z,14.40
2022-11-01T10:31:18.477Z,14.54
2022-11-01T10:33:55.359Z,14.30
2022-11-01T10:36:34.006Z,14.13
2022-11-01T10:42:20.637Z,13.99
2022-11-01T10:45:14.786Z,14.29
2022-11-01T10:47:58.337Z,14.04
2022-11-01T10:50:30.635Z,14.04
2022-11-01T10:53:12.321Z,14.56
2022-11-01T10:55:44.457Z,14.77
2022-11-01T10:58:34.618Z,14.49
2022-11-01T11:01:05.675Z,14.41
2022-11-01T11:03:34.698Z,14.78
2022-11-01T11:06:10.630Z,14.74
2022-11-01T11:08:42.078Z,14.72
2022-11-01T11:11:15.948Z,14.93
2022-11-01T11:13:48.714Z,14.84
2022-11-01T11:16:31.205Z,14.66
2022-11-01T11:19:01.359Z,14.74
2022-11-01T11:21:34.689Z,14.81
2022-11-01T11:24:03.667Z,15.00
2022-11-01T11:29:18.791Z,14.90
2022-11-01T11:31:56.708Z,14.98
2022-11-01T11:34:41.744Z,15.02
2022-11-01T11:37:20.242Z,14.64
2022-11-01T11:40:17.097Z,14.70
2022-11-01T11:42:46.175Z,14.88
2022-11-01T11:45:26.768Z,14.55
2022-11-01T11:47:58.175Z,14.68
2022-11-01T11:50:32.838Z,14.96
2022-11-01T11:53:06.607Z,14.73
2022-11-01T11:55:39.981Z,14.68
2022-11-01T11:58:19.680Z,15.23
2022-11-01T12:00:54.847Z,15.17
2022-11-01T12:03:23.913Z,15.22
2022-11-01T12:05:54.526Z,15.39
2022-11-01T12:08:31.728Z,15.53
2022-11-01T12:10:59.728Z,15.48
2022-11-01T12:13:38.357Z,15.62
2022-11-01T12:16:24.904Z,15.45
2022-11-01T12:18:58.517Z,15.86
2022-11-01T12:21:34.778Z,15.75
2022-11-01T12:24:05.344Z,15.56
2022-11-01T12:26:36.466Z,15.27
2022-11-01T12:29:39.000Z,15.57
2022-11-01T12:32:14.595Z,15.96
2022-11-01T12:34:45.140Z,15.96
2022-11-01T12:37:35.474Z,15.99
2022-11-01T12:40:24.075Z,15.68
2022-11-01T12:43:01.248Z,16.06
2022-11-01T12:45:36.602Z,16.14
2022-11-01T12:48:09.608Z,15.90
2022-11-01T12:50:48.942Z,15.45
2022-11-01T12:53:23.425Z,15.69
2022-11-01T12:55:51.154Z,15.02
2022-11-01T12:58:21.717Z,15.54
2022-11-01T13:01:01.743Z,15.71
2022-11-01T13:03:52.508Z,15.58
2022-11-01T13:06:41.888Z,15.94
2022-11-01T13:09:28.115Z,15.64
2022-11-01T13:12:09.268Z,15.21
2022-11-01T13:15:00.778Z,15.38
2022-11-01T13:17:46.421Z,15.35
2022-11-01T13:20:26.350Z,15.41
2022-11-01T13:23:06.554Z,15.58
2022-11-01T13:25:58.886Z,15.83
2022-11-01T13:28:48.395Z,15.85
2022-11-01T13:31:21.999Z,16.00
2022-11-01T13:34:13.840Z,16.19
2022-11-01T13:36:57.282Z,15.98
2022-11-01T13:39:51.416Z,16.12
2022-11-01T13:42:24.455Z,15.82
2022-11-01T13:45:36.696Z,15.99
2022-11-01T13:48:37.136Z,15.88
2022-11-01T13:51:38.093Z,15.22
2022-11-01T13:54:25.975Z,14.68
2022-11-01T13:57:01.156Z,14.86
2022-11-01T13:59:44.757Z,15.28
2022-11-01T14:02:24.616Z,15.64
2022-11-01T14:05:00.641Z,15.29
2022-11-01T14:07:35.851Z,15.23
2022-11-01T14:10:19.131Z,14.99
2022-11-01T14:13:12.134Z,15.00
2022-11-01T14:15:55.170Z,15.09
2022-11-01T14:18:26.589Z,15.27
2022-11-01T14:20:55.965Z,15.46
2022-11-01T14:23:27.335Z,15.30
2022-11-01T14:26:20.296Z,15.27
2022-11-01T14:28:49.919Z,15.38
2022-11-01T14:31:24.549Z,15.44
2022-11-01T14:33:56.161Z,15.26
2022-11-01T14:36:31.136Z,15.27
2022-11-01T14:39:17.820Z,15.17
2022-11-01T14:41:52.365Z,15.23
2022-11-01T14:44:34.839Z,15.38
2022-11-01T14:47:16.331Z,15.23
2022-11-01T14:49:44.761Z,15.20
2022-11-01T14:52:32.230Z,15.06
2022-11-01T14:55:00.105Z,15.07
2022-11-01T14:57:30.590Z,14.98
2022-11-01T14:59:59.896Z,15.05
2022-11-01T15:02:29.233Z,14.92
2022-11-01T15:04:59.521Z,15.14
2022-11-01T15:07:36.890Z,15.20
2022-11-01T15:10:06.413Z,14.91
2022-11-01T15:12:46.614Z,14.75
2022-11-01T15:15:27.035Z,14.74
2022-11-01T15:17:56.969Z,14.84
2022-11-01T15:20:34.968Z,14.71
2022-11-01T15:23:08.011Z,14.69
2022-11-01T15:25:36.940Z,14.59
2022-11-01T15:28:05.201Z,14.67
2022-11-01T15:30:39.296Z,14.91
2022-11-01T15:33:21.453Z,14.77
2022-11-01T15:35:59.506Z,14.65
2022-11-01T15:38:30.145Z,14.37
2022-11-01T15:40:59.000Z,14.27
2022-11-01T15:43:28.358Z,14.03
2022-11-01T15:46:01.782Z,14.13
2022-11-01T15:48:33.170Z,14.26
2022-11-01T15:51:05.369Z,13.78
2022-11-01T15:53:35.899Z,13.85
2022-11-01T15:56:15.903Z,13.99
2022-11-01T16:01:28.290Z,13.47
2022-11-01T16:04:05.212Z,13.91
2022-11-01T16:06:42.147Z,13.68
2022-11-01T16:09:47.387Z,13.60
2022-11-01T16:12:22.487Z,14.01
2022-11-01T16:14:54.886Z,13.79
2022-11-01T16:17:33.146Z,13.34
2022-11-01T16:20:05.567Z,13.14
2022-11-01T16:22:36.123Z,13.41
2022-11-01T16:25:07.645Z,13.37
2022-11-01T16:27:36.181Z,13.52
2022-11-01T16:30:10.777Z,13.41
2022-11-01T16:33:19.148Z,13.57
2022-11-01T16:35:49.636Z,13.28
2022-11-01T16:38:39.838Z,13.31
2022-11-01T16:41:24.196Z,13.13
2022-11-01T16:43:54.967Z,13.50
2022-11-01T16:46:25.253Z,13.66
2022-11-01T16:48:59.117Z,13.52
2022-11-01T16:51:30.568Z,13.38
2022-11-01T16:54:03.143Z,13.40
2022-11-01T16:56:42.548Z,13.09
2022-11-01T16:59:34.613Z,13.29
2022-11-01T17:02:15.321Z,12.75
2022-11-01T17:04:45.228Z,12.85
2022-11-01T17:07:16.752Z,12.95
2022-11-01T17:09:45.128Z,12.85
2022-11-01T17:12:14.143Z,12.91
2022-11-01T17:14:43.094Z,12.86
2022-11-01T17:17:15.884Z,13.15
2022-11-01T17:19:48.716Z,13.06
2022-11-01T17:22:36.680Z,13.14
2022-11-01T17:25:06.930Z,13.24
2022-11-01T17:27:35.281Z,13.03
2022-11-01T17:30:09.725Z,13.14
2022-11-01T17:32:43.151Z,13.18
2022-11-01T17:35:12.086Z,12.95
2022-11-01T17:37:42.167Z,12.83
2022-11-01T17:40:21.976Z,12.99
2022-11-01T17:42:51.677Z,12.93
2022-11-01T17:45:20.589Z,12.80
2022-11-01T17:47:49.002Z,12.82
2022-11-01T17:50:17.576Z,12.92
2022-11-01T17:52:47.660Z,12.94
2022-11-01T17:55:16.070Z,13.02
2022-11-01T17:57:50.038Z,12.91
2022-11-01T18:00:20.448Z,12.83
2022-11-01T18:03:15.714Z,12.63
2022-11-01T18:06:03.957Z,12.67
2022-11-01T18:08:54.097Z,12.74
2022-11-01T18:12:01.813Z,12.64
2022-11-01T18:15:19.566Z,12.85
2022-11-01T18:18:14.196Z,12.69
2022-11-01T18:21:16.987Z,12.88
2022-11-01T18:23:48.272Z,12.71
2022-11-01T18:26:23.176Z,12.81
2022-11-01T18:29:40.147Z,12.85
2022-11-01T18:32:23.750Z,12.82
2022-11-01T18:35:00.276Z,12.82
2022-11-01T18:37:42.726Z,13.00
2022-11-01T18:40:23.331Z,13.00
2022-11-01T18:42:53.317Z,12.83
2022-11-01T18:45:30.970Z,12.99
2022-11-01T18:48:16.342Z,13.00
2022-11-01T18:50:44.164Z,13.01
2022-11-01T18:53:17.735Z,13.01
2022-11-01T18:55:49.437Z,13.02
2022-11-01T18:58:24.359Z,13.12
2022-11-01T19:01:02.595Z,12.95
2022-11-01T19:03:31.781Z,13.09
2022-11-01T19:06:13.777Z,13.17
2022-11-01T19:08:42.059Z,13.19
2022-11-01T19:11:12.226Z,13.23
2022-11-01T19:13:41.709Z,13.32
2022-11-01T19:16:18.322Z,13.44
2022-11-01T19:18:48.193Z,13.28
2022-11-01T19:21:22.012Z,13.38
2022-11-01T19:23:54.206Z,13.38
2022-11-01T19:26:30.751Z,13.07
2022-11-01T19:28:59.044Z,13.17
2022-11-01T19:31:38.404Z,13.34
2022-11-01T19:34:22.862Z,13.19
2022-11-01T19:36:55.319Z,13.33
2022-11-01T19:39:44.556Z,13.29
2022-11-01T19:42:23.229Z,13.32
2022-11-01T19:44:56.218Z,13.45
2022-11-01T19:47:36.186Z,13.26
2022-11-01T19:50:26.758Z,13.46
2022-11-01T19:52:57.356Z,13.31
2022-11-01T19:55:31.350Z,13.30
2022-11-01T19:57:59.819Z,13.36
2022-11-01T20:00:29.301Z,13.29
2022-11-01T20:03:00.711Z,13.43
2022-11-01T20:05:36.585Z,13.50
2022-11-01T20:08:34.394Z,13.37
2022-11-01T20:11:02.139Z,13.34
2022-11-01T20:13:30.591Z,13.58
2022-11-01T20:15:58.304Z,13.43
2022-11-01T20:18:27.018Z,13.51
2022-11-01T20:20:56.546Z,13.58
2022-11-01T20:23:26.905Z,13.49
2022-11-01T20:25:55.400Z,13.37
2022-11-01T20:28:23.221Z,13.43
2022-11-01T20:30:51.495Z,13.54
2022-11-01T20:33:20.042Z,13.65
2022-11-01T20:35:49.226Z,13.37
2022-11-01T20:38:17.329Z,13.34
2022-11-01T20:40:46.193Z,13.54
2022-11-01T20:43:14.052Z,13.35
2022-11-01T20:45:42.050Z,13.57
2022-11-01T20:48:10.451Z,13.41
2022-11-01T20:50:38.173Z,13.28
2022-11-01T20:53:06.742Z,13.54
2022-11-01T20:55:35.431Z,13.75
2022-11-01T20:58:04.117Z,13.54
2022-11-01T21:00:32.298Z,13.72
2022-11-01T21:03:04.395Z,13.69
2022-11-01T21:05:34.752Z,13.58
2022-11-01T21:08:28.073Z,13.79
2022-11-01T21:11:03.664Z,13.50
2022-11-01T21:13:34.327Z,13.55
2022-11-01T21:16:03.702Z,13.60
2022-11-01T21:18:38.655Z,13.67
2022-11-01T21:21:15.663Z,13.55
2022-11-01T21:23:44.852Z,13.75
2022-11-01T21:26:25.799Z,13.76
2022-11-01T21:28:58.924Z,13.80
2022-11-01T21:31:29.386Z,13.83
2022-11-01T21:34:05.897Z,13.86
2022-11-01T21:36:42.496Z,13.96
2022-11-01T21:39:18.550Z,13.77
2022-11-01T21:41:49.824Z,13.85
2022-11-01T21:44:34.730Z,13.63
2022-11-01T21:47:14.903Z,13.90
2022-11-01T21:49:43.455Z,13.87
2022-11-01T21:52:12.612Z,13.97
2022-11-01T21:54:41.991Z,13.94
2022-11-01T21:57:11.816Z,13.90
2022-11-01T21:59:40.088Z,13.90
2022-11-01T22:02:11.125Z,13.84
2022-11-01T22:04:39.716Z,13.87
2022-11-01T22:07:08.915Z,13.79
2022-11-01T22:09:37.836Z,13.87
2022-11-01T22:12:08.741Z,13.93
2022-11-01T22:14:37.488Z,13.96
2022-11-01T22:17:05.654Z,13.86
2022-11-01T22:19:33.297Z,13.83
2022-11-01T22:22:00.953Z,13.61
2022-11-01T22:24:29.687Z,13.80
2022-11-01T22:26:57.344Z,13.74
2022-11-01T22:29:25.032Z,13.57
2022-11-01T22:31:52.991Z,13.80
2022-11-01T22:34:21.302Z,13.94
2022-11-01T22:36:49.028Z,13.79
2022-11-01T22:39:21.054Z,13.80
2022-11-01T22:41:48.890Z,13.86
2022-11-01T22:44:21.923Z,13.96
2022-11-01T22:46:55.144Z,14.09
2022-11-01T22:49:40.665Z,14.05
2022-11-01T22:52:35.128Z,14.07
2022-11-01T22:55:15.116Z,13.96
2022-11-01T22:57:57.523Z,13.95
2022-11-01T23:00:33.386Z,14.00
2022-11-01T23:03:09.872Z,13.94
2022-11-01T23:05:38.414Z,13.93
2022-11-01T23:08:41.872Z,13.84
2022-11-01T23:11:34.325Z,13.60
2022-11-01T23:14:45.448Z,13.79
2022-11-01T23:17:21.336Z,13.76
2022-11-01T23:19:59.352Z,13.86
2022-11-01T23:22:33.585Z,13.91
2022-11-01T23:25:01.278Z,13.75
2022-11-01T23:27:29.872Z,13.62
2022-11-01T23:30:02.089Z,13.55
2022-11-01T23:32:32.157Z,13.45
2022-11-01T23:35:21.628Z,13.66
2022-11-01T23:37:50.301Z,13.65
2022-11-01T23:40:21.187Z,13.73
2022-11-01T23:42:49.235Z,13.60
2022-11-01T23:45:27.248Z,13.48
2022-11-01T23:47:55.720Z,13.69
2022-11-01T23:50:34.268Z,13.71
2022-11-01T23:53:06.322Z,13.72
2022-11-01T23:55:38.512Z,13.66
2022-11-01T23:58:10.164Z,13.69
